createdAt,value
2022-09-14T00:01:45.499Z,2.60
2022-09-14T00:04:16.500Z,3.80
2022-09-14T00:06:45.547Z,2.60
2022-09-14T00:09:17.550Z,2.60
2022-09-14T00:11:46.237Z,3.73
2022-09-14T00:14:14.956Z,3.10
2022-09-14T00:16:45.857Z,3.83
2022-09-14T00:19:21.057Z,2.57
2022-09-14T00:21:52.536Z,3.33
2022-09-14T00:24:21.454Z,3.00
2022-09-14T00:26:50.353Z,2.90
2022-09-14T00:29:19.825Z,2.70
2022-09-14T00:31:49.456Z,3.40
2022-09-14T00:34:19.264Z,3.20
2022-09-14T00:36:51.995Z,3.40
2022-09-14T00:39:24.106Z,4.17
2022-09-14T00:41:53.667Z,4.07
2022-09-14T00:45:01.079Z,4.67
2022-09-14T00:47:33.383Z,5.83
2022-09-14T00:50:04.041Z,4.80
2022-09-14T00:52:35.342Z,5.27
2022-09-14T00:55:07.069Z,5.10
2022-09-14T00:57:38.986Z,5.00
2022-09-14T01:00:10.559Z,4.97
2022-09-14T01:02:40.908Z,4.63
2022-09-14T01:05:10.891Z,4.93
2022-09-14T01:07:59.768Z,5.00
2022-09-14T01:10:52.080Z,4.70
2022-09-14T01:13:30.107Z,4.60
2022-09-14T01:16:06.056Z,4.30
2022-09-14T01:18:39.201Z,4.87
2022-09-14T01:21:11.312Z,4.30
2022-09-14T01:23:48.264Z,4.47
2022-09-14T01:26:52.919Z,4.10
2022-09-14T01:29:28.823Z,4.43
2022-09-14T01:32:02.477Z,3.90
2022-09-14T01:34:35.681Z,4.27
2022-09-14T01:37:13.076Z,4.83
2022-09-14T01:39:47.568Z,5.87
2022-09-14T01:42:18.602Z,6.87
2022-09-14T01:44:53.858Z,8.40
2022-09-14T01:47:27.551Z,7.03
2022-09-14T01:50:00.665Z,7.93
2022-09-14T01:52:35.638Z,7.60
2022-09-14T01:55:11.000Z,7.77
2022-09-14T01:57:43.976Z,8.40
2022-09-14T02:00:18.073Z,6.60
2022-09-14T02:02:50.716Z,6.50
2022-09-14T02:05:24.030Z,7.10
2022-09-14T02:07:52.582Z,6.60
2022-09-14T02:10:20.905Z,7.47
2022-09-14T02:12:49.324Z,6.93
2022-09-14T02:15:19.236Z,6.80
2022-09-14T02:17:48.335Z,6.00
2022-09-14T02:20:20.263Z,5.83
2022-09-14T02:22:48.915Z,6.20
2022-09-14T02:25:17.335Z,6.17
2022-09-14T02:27:47.452Z,5.27
2022-09-14T02:30:16.123Z,5.83
2022-09-14T02:32:54.630Z,5.30
2022-09-14T02:35:28.165Z,5.30
2022-09-14T02:38:03.747Z,5.97
2022-09-14T02:40:36.737Z,6.30
2022-09-14T02:43:18.871Z,6.63
2022-09-14T02:45:57.722Z,6.37
2022-09-14T02:48:35.699Z,6.60
2022-09-14T02:51:10.876Z,7.33
2022-09-14T02:53:44.915Z,7.63
2022-09-14T02:56:14.998Z,5.40
2022-09-14T02:58:44.751Z,5.60
2022-09-14T03:01:16.222Z,5.70
2022-09-14T03:03:45.807Z,6.60
2022-09-14T03:06:14.488Z,6.90
2022-09-14T03:08:44.276Z,5.77
2022-09-14T03:11:12.927Z,6.00
2022-09-14T03:13:41.139Z,5.00
2022-09-14T03:16:10.698Z,4.40
2022-09-14T03:18:39.969Z,4.40
2022-09-14T03:21:12.451Z,4.67
2022-09-14T03:23:42.206Z,4.40
2022-09-14T03:26:11.932Z,4.50
2022-09-14T03:28:40.818Z,4.17
2022-09-14T03:31:10.798Z,3.80
2022-09-14T03:33:39.964Z,5.00
2022-09-14T03:36:13.855Z,4.20
2022-09-14T03:38:45.279Z,4.03
2022-09-14T03:41:14.568Z,3.77
2022-09-14T03:43:43.868Z,3.93
2022-09-14T03:46:14.798Z,4.40
2022-09-14T03:48:44.386Z,3.87
2022-09-14T03:51:15.244Z,3.60
2022-09-14T03:53:45.175Z,4.47
2022-09-14T03:56:15.351Z,3.87
2022-09-14T03:58:43.932Z,4.93
2022-09-14T04:01:15.807Z,4.87
2022-09-14T04:03:44.628Z,4.50
2022-09-14T04:06:15.745Z,4.73
2022-09-14T04:08:45.045Z,5.13
2022-09-14T04:11:16.411Z,4.67
2022-09-14T04:13:47.151Z,5.63
2022-09-14T04:16:16.536Z,5.03
2022-09-14T04:18:45.612Z,4.70
2022-09-14T04:21:17.675Z,4.33
2022-09-14T04:24:10.601Z,4.40
2022-09-14T04:26:35.944Z,5.10
2022-09-14T04:29:04.946Z,5.47
2022-09-14T04:31:33.740Z,4.20
2022-09-14T04:34:02.135Z,4.73
2022-09-14T04:36:32.142Z,4.50
2022-09-14T04:39:02.150Z,3.93
2022-09-14T04:41:31.967Z,4.17
2022-09-14T04:44:01.205Z,4.10
2022-09-14T04:46:31.254Z,3.97
2022-09-14T04:49:00.159Z,4.50
2022-09-14T04:51:30.916Z,4.30
2022-09-14T04:54:01.961Z,4.20
2022-09-14T04:56:35.437Z,4.60
2022-09-14T04:59:05.918Z,4.57
2022-09-14T05:01:37.036Z,4.03
2022-09-14T05:04:07.616Z,4.50
2022-09-14T05:06:39.367Z,4.20
2022-09-14T05:09:13.338Z,3.87
2022-09-14T05:11:43.337Z,4.00
2022-09-14T05:14:13.038Z,3.77
2022-09-14T05:16:42.745Z,4.10
2022-09-14T05:19:16.033Z,3.70
2022-09-14T05:21:45.684Z,4.23
2022-09-14T05:24:18.542Z,4.30
2022-09-14T05:26:47.814Z,3.67
2022-09-14T05:29:18.006Z,4.60
2022-09-14T05:31:46.993Z,4.90
2022-09-14T05:34:15.556Z,4.30
2022-09-14T05:36:44.671Z,3.67
2022-09-14T05:39:14.561Z,4.67
2022-09-14T05:41:44.476Z,4.13
2022-09-14T05:44:12.904Z,4.43
2022-09-14T05:46:41.360Z,3.60
2022-09-14T05:49:09.691Z,3.63
2022-09-14T05:51:39.288Z,3.63
2022-09-14T05:54:11.580Z,3.33
2022-09-14T05:56:41.348Z,3.50
2022-09-14T05:59:11.124Z,3.50
2022-09-14T06:01:39.543Z,3.97
2022-09-14T06:04:07.868Z,3.93
2022-09-14T06:06:36.225Z,3.30
2022-09-14T06:09:05.466Z,3.40
2022-09-14T06:11:36.340Z,3.93
2022-09-14T06:14:06.553Z,4.47
2022-09-14T06:16:35.699Z,4.20
2022-09-14T06:19:04.529Z,4.20
2022-09-14T06:21:35.224Z,4.43
2022-09-14T06:24:03.766Z,3.90
2022-09-14T06:26:32.454Z,4.43
2022-09-14T06:29:00.726Z,4.27
2022-09-14T06:31:30.361Z,4.60
2022-09-14T06:33:58.688Z,4.23
2022-09-14T06:36:28.397Z,3.73
2022-09-14T06:38:57.326Z,4.10
2022-09-14T06:41:29.247Z,3.90
2022-09-14T06:43:58.692Z,3.13
2022-09-14T06:46:30.091Z,4.87
2022-09-14T06:49:00.003Z,3.67
2022-09-14T06:51:30.236Z,4.10
2022-09-14T06:54:00.730Z,3.50
2022-09-14T06:56:29.711Z,3.77
2022-09-14T06:58:59.360Z,3.70
2022-09-14T07:01:29.969Z,4.00
2022-09-14T07:04:00.324Z,3.90
2022-09-14T07:06:31.108Z,3.30
2022-09-14T07:08:59.923Z,3.30
2022-09-14T07:11:29.570Z,3.70
2022-09-14T07:13:59.013Z,3.00
2022-09-14T07:16:28.038Z,3.27
2022-09-14T07:18:59.229Z,3.90
2022-09-14T07:21:28.081Z,3.27
2022-09-14T07:23:56.815Z,3.40
2022-09-14T07:26:26.940Z,3.27
2022-09-14T07:28:57.912Z,3.10
2022-09-14T07:31:28.917Z,3.20
2022-09-14T07:34:00.067Z,3.73
2022-09-14T07:36:33.952Z,3.17
2022-09-14T07:39:03.369Z,3.00
2022-09-14T07:41:34.266Z,3.27
2022-09-14T07:44:04.495Z,3.60
2022-09-14T07:46:34.216Z,2.80
2022-09-14T07:49:04.894Z,2.70
2022-09-14T07:51:34.756Z,3.70
2022-09-14T07:54:03.351Z,3.37
2022-09-14T07:56:31.873Z,2.97
2022-09-14T07:59:23.894Z,4.07
2022-09-14T08:01:50.103Z,3.50
2022-09-14T08:04:19.771Z,3.60
2022-09-14T08:06:47.979Z,2.63
2022-09-14T08:09:16.377Z,2.70
2022-09-14T08:11:44.601Z,3.50
2022-09-14T08:14:14.356Z,3.27
2022-09-14T08:16:42.979Z,3.07
2022-09-14T08:19:15.791Z,3.10
2022-09-14T08:21:47.546Z,3.17
2022-09-14T08:24:19.258Z,2.83
2022-09-14T08:26:48.028Z,3.30
2022-09-14T08:29:17.483Z,2.97
2022-09-14T08:31:47.129Z,3.30
2022-09-14T08:34:16.914Z,3.33
2022-09-14T08:36:48.147Z,3.87
2022-09-14T08:39:18.684Z,3.23
2022-09-14T08:41:52.928Z,2.70
2022-09-14T08:44:30.142Z,2.60
2022-09-14T08:47:02.597Z,3.27
2022-09-14T08:49:47.071Z,3.00
2022-09-14T08:52:29.300Z,2.70
2022-09-14T08:55:00.629Z,2.83
2022-09-14T08:57:42.721Z,2.63
2022-09-14T09:00:14.252Z,2.80
2022-09-14T09:02:57.005Z,3.20
2022-09-14T09:05:35.449Z,3.70
2022-09-14T09:08:14.143Z,2.90
2022-09-14T09:10:42.695Z,3.07
2022-09-14T09:13:15.919Z,3.07
2022-09-14T09:15:49.305Z,3.50
2022-09-14T09:18:23.808Z,2.90
2022-09-14T09:20:56.114Z,3.23
2022-09-14T09:23:29.590Z,3.60
2022-09-14T09:26:02.615Z,3.00
2022-09-14T09:28:32.166Z,2.57
2022-09-14T09:31:05.373Z,2.93
2022-09-14T09:33:53.741Z,3.17
2022-09-14T09:36:25.438Z,2.77
2022-09-14T09:38:55.379Z,2.87
2022-09-14T09:41:26.588Z,2.90
2022-09-14T09:44:03.334Z,2.77
2022-09-14T09:46:35.975Z,3.00
2022-09-14T09:49:06.235Z,2.80
2022-09-14T09:51:35.933Z,3.17
2022-09-14T09:54:25.413Z,2.47
2022-09-14T09:56:56.906Z,3.13
2022-09-14T09:59:31.597Z,3.00
2022-09-14T10:02:22.680Z,3.00
2022-09-14T10:05:01.513Z,2.70
2022-09-14T10:07:32.235Z,3.13
2022-09-14T10:10:08.930Z,2.53
2022-09-14T10:12:39.504Z,3.63
2022-09-14T10:15:21.634Z,3.30
2022-09-14T10:18:12.388Z,3.23
2022-09-14T10:20:43.678Z,3.00
2022-09-14T10:23:25.316Z,2.90
2022-09-14T10:26:15.901Z,2.70
2022-09-14T10:28:45.664Z,2.50
2022-09-14T10:31:23.064Z,3.00
2022-09-14T10:33:53.917Z,2.57
2022-09-14T10:36:27.460Z,3.10
2022-09-14T10:38:59.851Z,2.50
2022-09-14T10:41:58.495Z,3.13
2022-09-14T10:44:46.782Z,3.40
2022-09-14T10:47:43.156Z,2.13
2022-09-14T10:50:29.426Z,2.67
2022-09-14T10:53:10.796Z,2.90
2022-09-14T10:55:45.772Z,2.40
2022-09-14T10:58:42.771Z,3.17
2022-09-14T11:01:29.769Z,2.67
2022-09-14T11:04:10.672Z,2.87
2022-09-14T11:06:55.398Z,3.03
2022-09-14T11:09:28.094Z,2.73
2022-09-14T11:12:08.765Z,2.50
2022-09-14T11:15:01.572Z,2.30
2022-09-14T11:17:53.408Z,2.87
2022-09-14T11:20:31.335Z,2.53
2022-09-14T11:23:12.910Z,2.80
2022-09-14T11:25:47.411Z,2.77
2022-09-14T11:28:20.536Z,3.40
2022-09-14T11:30:55.934Z,2.57
2022-09-14T11:33:31.421Z,3.63
2022-09-14T11:36:04.156Z,3.30
2022-09-14T11:38:37.585Z,3.70
2022-09-14T11:41:17.399Z,4.00
2022-09-14T11:43:50.665Z,3.63
2022-09-14T11:46:25.683Z,3.50
2022-09-14T11:49:03.007Z,3.57
2022-09-14T11:51:37.455Z,3.20
2022-09-14T11:54:13.133Z,3.20
2022-09-14T11:56:41.451Z,3.43
2022-09-14T11:59:31.308Z,3.00
2022-09-14T12:02:51.267Z,3.37
2022-09-14T12:05:32.549Z,3.57
2022-09-14T12:08:04.065Z,3.17
2022-09-14T12:10:32.533Z,3.40
2022-09-14T12:13:21.371Z,3.10
2022-09-14T12:15:49.653Z,3.70
2022-09-14T12:18:25.564Z,3.00
2022-09-14T12:21:08.010Z,3.00
2022-09-14T12:23:51.970Z,3.70
2022-09-14T12:26:31.344Z,3.30
2022-09-14T12:29:06.333Z,2.70
2022-09-14T12:31:59.317Z,2.83
2022-09-14T12:34:32.029Z,3.13
2022-09-14T12:37:29.221Z,2.80
2022-09-14T12:40:35.943Z,2.80
2022-09-14T12:43:47.483Z,1.80
2022-09-14T12:46:39.844Z,1.90
2022-09-14T12:49:32.799Z,1.50
2022-09-14T12:52:11.759Z,2.20
2022-09-14T12:54:57.469Z,1.60
2022-09-14T12:57:35.783Z,1.47
2022-09-14T13:00:13.855Z,1.30
2022-09-14T13:03:16.987Z,2.00
2022-09-14T13:05:47.222Z,1.40
2022-09-14T13:08:21.883Z,2.00
2022-09-14T13:10:52.029Z,1.50
2022-09-14T13:13:22.811Z,1.20
2022-09-14T13:15:54.942Z,0.73
2022-09-14T13:18:32.908Z,0.73
2022-09-14T13:21:05.731Z,0.70
2022-09-14T13:23:38.955Z,1.00
2022-09-14T13:26:13.017Z,0.97
2022-09-14T13:28:44.623Z,1.10
2022-09-14T13:31:15.916Z,1.00
2022-09-14T13:33:50.360Z,1.07
2022-09-14T13:36:23.349Z,1.10
2022-09-14T13:38:51.832Z,0.87
2022-09-14T13:41:23.624Z,0.70
2022-09-14T13:43:54.327Z,0.90
2022-09-14T13:46:24.024Z,0.97
2022-09-14T13:48:53.475Z,0.80
2022-09-14T13:51:26.691Z,0.93
2022-09-14T13:53:56.911Z,0.90
2022-09-14T13:56:31.154Z,1.00
2022-09-14T13:59:17.902Z,1.00
2022-09-14T14:01:57.382Z,1.73
2022-09-14T14:04:30.372Z,1.00
2022-09-14T14:07:23.012Z,1.17
2022-09-14T14:09:53.760Z,0.80
2022-09-14T14:12:25.793Z,1.10
2022-09-14T14:14:55.795Z,0.73
2022-09-14T14:17:36.858Z,0.80
2022-09-14T14:20:34.393Z,0.80
2022-09-14T14:23:21.404Z,1.00
2022-09-14T14:25:54.279Z,0.90
2022-09-14T14:28:26.420Z,0.93
2022-09-14T14:30:55.658Z,0.83
2022-09-14T14:33:24.317Z,0.73
2022-09-14T14:35:54.466Z,0.90
2022-09-14T14:38:25.111Z,0.80
2022-09-14T14:40:55.760Z,1.00
2022-09-14T14:43:26.502Z,1.10
2022-09-14T14:45:57.692Z,0.87
2022-09-14T14:48:26.354Z,1.23
2022-09-14T14:50:55.883Z,1.00
2022-09-14T14:53:27.517Z,1.17
2022-09-14T14:55:55.849Z,1.00
2022-09-14T14:58:24.795Z,0.80
2022-09-14T15:00:53.086Z,1.03
2022-09-14T15:03:21.431Z,0.93
2022-09-14T15:05:50.719Z,0.93
2022-09-14T15:08:21.005Z,1.33
2022-09-14T15:10:58.022Z,0.97
2022-09-14T15:13:26.361Z,1.17
2022-09-14T15:15:54.660Z,0.93
2022-09-14T15:18:23.000Z,1.00
2022-09-14T15:20:51.396Z,1.00
2022-09-14T15:23:19.732Z,1.33
2022-09-14T15:25:51.943Z,1.30
2022-09-14T15:28:21.796Z,0.90
2022-09-14T15:30:50.340Z,1.17
2022-09-14T15:33:18.702Z,1.13
2022-09-14T15:35:47.194Z,1.00
2022-09-14T15:38:15.726Z,1.00
2022-09-14T15:40:44.009Z,1.10
2022-09-14T15:43:12.395Z,1.10
2022-09-14T15:45:50.332Z,1.00
2022-09-14T15:48:20.185Z,1.30
2022-09-14T15:50:50.177Z,1.00
2022-09-14T15:53:21.941Z,1.10
2022-09-14T15:55:50.553Z,1.30
2022-09-14T15:58:18.887Z,1.30
2022-09-14T16:00:49.052Z,1.40
2022-09-14T16:03:17.965Z,1.40
2022-09-14T16:05:46.267Z,1.40
2022-09-14T16:08:14.922Z,1.60
2022-09-14T16:10:43.689Z,1.33
2022-09-14T16:13:12.730Z,1.77
2022-09-14T16:15:41.600Z,1.23
2022-09-14T16:18:11.933Z,1.60
2022-09-14T16:20:40.262Z,1.40
2022-09-14T16:23:09.137Z,1.57
2022-09-14T16:25:40.669Z,1.20
2022-09-14T16:28:09.425Z,1.47
2022-09-14T16:30:37.940Z,1.73
2022-09-14T16:33:06.380Z,1.20
2022-09-14T16:35:36.357Z,1.03
2022-09-14T16:38:04.994Z,1.07
2022-09-14T16:40:34.255Z,1.70
2022-09-14T16:43:02.533Z,1.10
2022-09-14T16:45:31.231Z,1.40
2022-09-14T16:47:59.516Z,1.20
2022-09-14T16:50:27.994Z,1.40
2022-09-14T16:52:57.777Z,1.30
2022-09-14T16:55:26.030Z,1.37
2022-09-14T16:57:54.251Z,1.30
2022-09-14T17:00:22.445Z,0.93
2022-09-14T17:02:53.079Z,1.20
2022-09-14T17:05:22.119Z,1.27
2022-09-14T17:07:50.531Z,1.20
2022-09-14T17:10:20.399Z,1.40
2022-09-14T17:12:48.677Z,1.33
2022-09-14T17:15:17.443Z,1.77
2022-09-14T17:17:45.733Z,1.37
2022-09-14T17:20:14.125Z,1.53
2022-09-14T17:22:42.763Z,1.73
2022-09-14T17:25:14.888Z,1.60
2022-09-14T17:27:46.982Z,1.70
2022-09-14T17:30:15.803Z,1.70
2022-09-14T17:32:44.164Z,1.13
2022-09-14T17:35:12.297Z,1.73
2022-09-14T17:37:40.541Z,1.33
2022-09-14T17:40:10.958Z,1.70
2022-09-14T17:42:39.573Z,1.20
2022-09-14T17:45:11.178Z,1.07
2022-09-14T17:47:39.521Z,1.60
2022-09-14T17:50:08.662Z,1.47
2022-09-14T17:52:37.076Z,1.20
2022-09-14T17:55:06.343Z,1.40
2022-09-14T17:57:34.637Z,1.23
2022-09-14T18:00:03.678Z,1.63
2022-09-14T18:02:34.525Z,1.37
2022-09-14T18:05:03.096Z,1.57
2022-09-14T18:07:31.543Z,1.60
2022-09-14T18:09:59.943Z,1.20
2022-09-14T18:12:28.891Z,1.97
2022-09-14T18:14:57.693Z,1.67
2022-09-14T18:17:26.197Z,1.80
2022-09-14T18:19:58.448Z,1.53
2022-09-14T18:22:27.004Z,1.43
2022-09-14T18:24:55.729Z,1.77
2022-09-14T18:27:24.215Z,1.80
2022-09-14T18:29:52.888Z,1.53
2022-09-14T18:32:21.237Z,1.40
2022-09-14T18:34:49.719Z,1.87
2022-09-14T18:37:20.203Z,1.47
2022-09-14T18:39:48.568Z,1.80
2022-09-14T18:42:16.877Z,1.57
2022-09-14T18:44:45.363Z,1.43
2022-09-14T18:47:13.571Z,1.77
2022-09-14T18:49:41.802Z,1.80
2022-09-14T18:52:10.057Z,1.70
2022-09-14T18:54:39.673Z,1.87
2022-09-14T18:57:07.948Z,1.70
2022-09-14T18:59:36.194Z,1.60
2022-09-14T19:02:04.596Z,1.87
2022-09-14T19:04:32.843Z,1.80
2022-09-14T19:07:01.285Z,1.30
2022-09-14T19:09:29.689Z,2.43
2022-09-14T19:11:59.542Z,1.80
2022-09-14T19:14:28.385Z,1.60
2022-09-14T19:16:58.597Z,1.57
2022-09-14T19:19:27.082Z,2.10
2022-09-14T19:21:55.336Z,1.50
2022-09-14T19:24:23.577Z,1.70
2022-09-14T19:26:52.849Z,1.87
2022-09-14T19:29:24.228Z,1.83
2022-09-14T19:31:54.156Z,2.03
2022-09-14T19:34:25.459Z,1.90
2022-09-14T19:36:56.633Z,1.90
2022-09-14T19:39:26.283Z,1.60
2022-09-14T19:41:54.827Z,1.63
2022-09-14T19:44:31.572Z,2.07
2022-09-14T19:46:59.754Z,2.03
2022-09-14T19:49:28.180Z,1.90
2022-09-14T19:51:56.642Z,1.50
2022-09-14T19:54:24.988Z,1.77
2022-09-14T19:56:53.223Z,2.00
2022-09-14T19:59:21.733Z,1.80
2022-09-14T20:01:51.590Z,1.73
2022-09-14T20:04:20.488Z,3.10
2022-09-14T20:06:49.610Z,1.80
2022-09-14T20:09:19.551Z,2.50
2022-09-14T20:11:49.744Z,2.50
2022-09-14T20:14:19.878Z,2.27
2022-09-14T20:16:52.053Z,2.10
2022-09-14T20:19:22.465Z,1.70
2022-09-14T20:21:51.886Z,2.20
2022-09-14T20:24:25.551Z,2.17
2022-09-14T20:26:55.982Z,2.07
2022-09-14T20:29:25.889Z,2.10
2022-09-14T20:31:55.825Z,2.20
2022-09-14T20:34:24.339Z,2.00
2022-09-14T20:36:54.020Z,1.73
2022-09-14T20:39:24.089Z,1.77
2022-09-14T20:41:53.002Z,1.73
2022-09-14T20:44:23.455Z,2.10
2022-09-14T20:46:52.727Z,2.00
2022-09-14T20:49:24.029Z,2.10
2022-09-14T20:51:54.515Z,2.13
2022-09-14T20:54:23.434Z,2.03
2022-09-14T20:56:51.833Z,2.13
2022-09-14T20:59:22.372Z,2.30
2022-09-14T21:01:52.643Z,1.93
2022-09-14T21:04:24.213Z,1.90
2022-09-14T21:06:54.051Z,2.70
2022-09-14T21:09:24.504Z,2.77
2022-09-14T21:11:53.334Z,2.60
2022-09-14T21:14:22.306Z,2.07
2022-09-14T21:16:53.490Z,2.30
2022-09-14T21:19:25.233Z,2.20
2022-09-14T21:21:53.781Z,2.17
2022-09-14T21:24:23.243Z,2.70
2022-09-14T21:26:52.681Z,3.13
2022-09-14T21:29:24.105Z,2.40
2022-09-14T21:31:53.556Z,2.93
2022-09-14T21:34:23.337Z,1.97
2022-09-14T21:36:53.105Z,2.17
2022-09-14T21:39:23.439Z,2.30
2022-09-14T21:41:58.033Z,2.10
2022-09-14T21:44:30.066Z,3.00
2022-09-14T21:46:58.507Z,2.87
2022-09-14T21:49:28.303Z,2.73
2022-09-14T21:51:56.617Z,2.67
2022-09-14T21:54:25.026Z,2.40
2022-09-14T21:56:54.102Z,3.23
2022-09-14T21:59:23.204Z,2.50
2022-09-14T22:01:51.618Z,2.30
2022-09-14T22:04:21.780Z,2.40
2022-09-14T22:06:53.412Z,2.30
2022-09-14T22:09:24.134Z,2.07
2022-09-14T22:11:52.725Z,1.63
2022-09-14T22:14:23.320Z,2.03
2022-09-14T22:16:51.593Z,1.73
2022-09-14T22:19:21.583Z,1.87
2022-09-14T22:21:52.092Z,1.50
2022-09-14T22:24:23.277Z,1.30
2022-09-14T22:26:51.603Z,1.83
2022-09-14T22:29:20.216Z,1.80
2022-09-14T22:31:49.025Z,1.23
2022-09-14T22:34:18.269Z,1.40
2022-09-14T22:36:46.909Z,1.63
2022-09-14T22:39:16.442Z,1.33
2022-09-14T22:41:44.591Z,1.20
2022-09-14T22:44:13.495Z,1.70
2022-09-14T22:46:42.082Z,1.53
2022-09-14T22:49:11.112Z,1.43
2022-09-14T22:51:39.540Z,1.47
2022-09-14T22:54:07.708Z,1.20
2022-09-14T22:56:39.856Z,1.60
2022-09-14T22:59:09.940Z,1.77
2022-09-14T23:01:41.243Z,1.27
2022-09-14T23:04:12.756Z,1.50
2022-09-14T23:06:43.207Z,1.50
2022-09-14T23:09:13.823Z,1.17
2022-09-14T23:11:44.893Z,1.20
2022-09-14T23:14:13.452Z,1.50
2022-09-14T23:16:44.535Z,1.13
2022-09-14T23:19:15.852Z,1.43
2022-09-14T23:21:44.343Z,1.40
2022-09-14T23:24:13.383Z,1.10
2022-09-14T23:26:43.205Z,1.43
2022-09-14T23:29:15.167Z,1.50
2022-09-14T23:31:43.912Z,1.20
2022-09-14T23:34:12.237Z,1.00
2022-09-14T23:36:40.924Z,1.80
2022-09-14T23:39:09.170Z,1.70
2022-09-14T23:41:37.926Z,1.23
2022-09-14T23:44:07.760Z,1.57
2022-09-14T23:46:36.256Z,1.50
2022-09-14T23:49:04.558Z,1.90
2022-09-14T23:51:33.210Z,1.70
2022-09-14T23:54:01.438Z,1.30
2022-09-14T23:56:29.893Z,2.13
2022-09-14T23:58:58.271Z,1.70
